Time;durP1;ratioP1;P1;durP2;ratioP2;P2;SDS_P1;SDS_P2;PMS_P1;PMS_P2;Temp;Humidity;BMP_temperature;BMP_pressure;BME280_temperature;BME280_humidity;BME280_pressure;Samples;Min_cycle;Max_cycle;Signal;HPM_P1;HPM_P2
2023/01/17 00:00:33;;;;;;;11.80;10.37;;;;;;;0.47;100.00;96689.94;6247204;23;20660;-78
2023/01/17 00:03:00;;;;;;;12.17;9.63;;;;;;;0.52;100.00;96692.69;6247127;23;20236;-79
2023/01/17 00:10:57;;;;;;;12.03;9.53;;;;;;;0.68;100.00;96685.97;6222965;23;20272;-79
2023/01/17 00:13:24;;;;;;;11.60;9.70;;;;;;;0.72;100.00;96701.09;6209499;23;20203;-80
2023/01/17 00:15:51;;;;;;;12.67;9.77;;;;;;;0.76;100.00;96691.69;6249561;23;20616;-81
2023/01/17 00:18:17;;;;;;;10.47;9.37;;;;;;;0.84;100.00;96704.53;6249211;23;20549;-79
2023/01/17 00:26:16;;;;;;;11.17;9.87;;;;;;;0.90;100.00;96745.00;6249816;23;20233;-80
2023/01/17 01:35:54;;;;;;;9.83;7.30;;;;;;;1.27;100.00;96772.75;6249806;23;20216;-80
2023/01/17 01:38:22;;;;;;;8.87;7.10;;;;;;;1.32;100.00;96788.69;6198554;23;20285;-80
2023/01/17 01:40:52;;;;;;;10.17;7.20;;;;;;;1.40;100.00;96795.44;6250034;23;20286;-80
2023/01/17 01:43:40;;;;;;;8.50;7.60;;;;;;;1.32;100.00;96762.31;6249428;23;20201;-80
2023/01/17 01:46:09;;;;;;;9.60;7.47;;;;;;;1.35;100.00;96789.28;6249979;23;20551;-80
2023/01/17 01:48:50;;;;;;;8.23;7.43;;;;;;;1.20;100.00;96785.25;6249786;23;20200;-80
2023/01/17 01:51:22;;;;;;;8.57;7.67;;;;;;;1.24;100.00;96781.13;6249567;23;20213;-80
2023/01/17 01:53:53;;;;;;;8.97;7.67;;;;;;;1.15;100.00;96787.78;6250553;23;20208;-80
2023/01/17 01:56:22;;;;;;;8.53;7.23;;;;;;;1.22;100.00;96777.09;6223078;23;20209;-80
2023/01/17 01:58:50;;;;;;;9.20;7.67;;;;;;;1.22;100.00;96785.81;6223101;23;20205;-79
2023/01/17 02:01:17;;;;;;;9.07;7.23;;;;;;;1.20;100.00;96787.09;6196941;23;20221;-80
2023/01/17 02:03:44;;;;;;;8.03;6.90;;;;;;;0.99;100.00;96788.44;6222513;23;20209;-80
2023/01/17 02:06:27;;;;;;;7.93;7.13;;;;;;;0.99;100.00;96792.91;6222253;23;20720;-79
2023/01/17 02:08:56;;;;;;;9.47;7.60;;;;;;;0.99;100.00;96787.63;6222817;23;20204;-80
2023/01/17 02:11:23;;;;;;;8.97;7.03;;;;;;;1.08;100.00;96779.16;6219560;23;20208;-80
2023/01/17 02:13:49;;;;;;;8.70;7.30;;;;;;;1.11;100.00;96781.38;6246891;23;20255;-79
2023/01/17 02:16:30;;;;;;;8.23;7.27;;;;;;;1.01;100.00;96790.84;6245538;23;20211;-78
2023/01/17 02:19:12;;;;;;;7.10;6.40;;;;;;;1.12;100.00;96790.84;6246710;23;20215;-79
2023/01/17 02:21:54;;;;;;;7.57;6.63;;;;;;;1.13;100.00;96789.03;6244877;23;20221;-79
2023/01/17 02:24:32;;;;;;;7.83;6.53;;;;;;;1.15;100.00;96782.50;6245737;23;20266;-80
2023/01/17 02:27:24;;;;;;;7.40;6.57;;;;;;;1.22;100.00;96774.47;6219516;23;20205;-79
2023/01/17 02:30:32;;;;;;;7.77;6.97;;;;;;;1.27;100.00;96778.03;6210911;23;20209;-80
2023/01/17 02:33:14;;;;;;;7.13;6.40;;;;;;;1.30;100.00;96785.50;6230599;23;20212;-79
2023/01/17 02:35:53;;;;;;;7.67;6.10;;;;;;;1.31;100.00;96768.63;6246482;23;20262;-79
2023/01/17 02:38:44;;;;;;;7.50;6.70;;;;;;;1.25;100.00;96777.47;6244201;23;23286;-79
2023/01/17 02:41:18;;;;;;;7.33;6.57;;;;;;;1.32;100.00;96766.78;6216112;23;20284;-80
2023/01/17 02:43:48;;;;;;;7.70;6.80;;;;;;;1.40;100.00;96771.69;6211625;23;20212;-79
2023/01/17 02:46:15;;;;;;;6.93;6.20;;;;;;;1.43;100.00;96763.34;6220631;23;20208;-79
2023/01/17 02:48:42;;;;;;;7.07;6.37;;;;;;;1.47;100.00;96761.03;6246993;23;20201;-79
2023/01/17 02:51:37;;;;;;;8.00;7.07;;;;;;;1.40;100.00;96763.78;6246080;23;20289;-79
2023/01/17 02:54:29;;;;;;;8.03;6.30;;;;;;;1.38;100.00;96760.59;6194740;23;20209;-79
2023/01/17 02:57:05;;;;;;;6.37;5.77;;;;;;;1.36;100.00;96769.75;6246978;23;20209;-78
2023/01/17 02:59:39;;;;;;;6.77;6.07;;;;;;;1.46;100.00;96780.53;6212488;23;20205;-79
2023/01/17 03:02:27;;;;;;;6.90;6.03;;;;;;;1.36;100.00;96788.22;6216031;23;20209;-79
2023/01/17 03:04:59;;;;;;;7.37;5.30;;;;;;;1.35;100.00;96784.00;6222249;23;20626;-79
2023/01/17 03:07:27;;;;;;;6.80;5.90;;;;;;;1.42;100.00;96784.66;6248818;23;20208;-80
2023/01/17 03:10:00;;;;;;;8.00;5.53;;;;;;;1.26;100.00;96783.56;6222615;23;20188;-79
2023/01/17 03:12:28;;;;;;;6.17;5.57;;;;;;;1.25;100.00;96790.66;6222468;23;20280;-80
2023/01/17 03:14:55;;;;;;;7.80;5.50;;;;;;;1.27;100.00;96785.94;6222027;23;20564;-80
2023/01/17 03:17:29;;;;;;;6.80;6.10;;;;;;;1.33;100.00;96789.50;6222222;23;20201;-79
2023/01/17 03:19:55;;;;;;;6.60;5.90;;;;;;;1.48;100.00;96784.56;6221887;23;20555;-80
2023/01/17 03:22:22;;;;;;;6.77;6.07;;;;;;;1.52;100.00;96788.34;6245306;23;20204;-78
2023/01/17 03:24:49;;;;;;;6.77;6.07;;;;;;;1.47;100.00;96779.50;6245275;23;20546;-78
2023/01/17 03:27:15;;;;;;;6.67;5.97;;;;;;;1.43;100.00;96791.56;6245561;23;20284;-78
2023/01/17 03:29:42;;;;;;;7.27;6.07;;;;;;;1.46;100.00;96802.44;6245828;23;20208;-78
2023/01/17 03:32:09;;;;;;;6.90;6.20;;;;;;;1.37;100.00;96801.19;6244990;23;20209;-78
2023/01/17 03:34:35;;;;;;;6.27;5.67;;;;;;;1.42;100.00;96803.94;6245531;23;20705;-78
2023/01/17 03:37:02;;;;;;;6.50;5.77;;;;;;;1.41;100.00;96806.81;6245198;23;20208;-78
2023/01/17 03:39:28;;;;;;;6.93;6.23;;;;;;;1.38;100.00;96802.81;6245679;23;20207;-79
2023/01/17 03:41:55;;;;;;;8.07;7.27;;;;;;;1.42;100.00;96808.41;6245823;23;20209;-79
2023/01/17 03:44:22;;;;;;;7.57;6.73;;;;;;;1.41;100.00;96810.25;6244699;23;20503;-78
2023/01/17 03:46:48;;;;;;;7.60;6.23;;;;;;;1.39;100.00;96808.88;6245484;23;20284;-78
2023/01/17 03:49:15;;;;;;;8.30;7.10;;;;;;;1.41;100.00;96812.09;6245292;23;20211;-79
2023/01/17 03:51:42;;;;;;;7.77;6.97;;;;;;;1.46;100.00;96814.84;6245587;23;20236;-79
2023/01/17 03:54:08;;;;;;;7.40;6.57;;;;;;;1.39;100.00;96814.97;6244876;23;20275;-78
2023/01/17 03:56:35;;;;;;;7.17;6.47;;;;;;;1.39;100.00;96808.88;6245570;23;20196;-78
2023/01/17 03:59:02;;;;;;;6.60;5.80;;;;;;;1.36;100.00;96822.50;6245684;23;20230;-79
2023/01/17 04:01:28;;;;;;;6.77;6.03;;;;;;;1.43;100.00;96817.94;6244990;23;20276;-80
2023/01/17 04:03:55;;;;;;;6.97;6.30;;;;;;;1.35;100.00;96813.81;6206967;23;20232;-78
2023/01/17 04:06:21;;;;;;;7.63;6.47;;;;;;;1.41;100.00;96809.44;6243350;23;20678;-78
2023/01/17 04:08:48;;;;;;;6.97;6.27;;;;;;;1.42;100.00;96814.50;6244186;23;20204;-79
2023/01/17 04:11:15;;;;;;;6.93;6.23;;;;;;;1.36;100.00;96812.78;6244771;23;20409;-79
2023/01/17 04:13:41;;;;;;;7.93;7.13;;;;;;;1.46;100.00;96822.75;6245195;23;20201;-78
2023/01/17 04:16:13;;;;;;;7.17;6.47;;;;;;;1.39;100.00;96816.81;6244347;23;20229;-78
2023/01/17 04:18:40;;;;;;;7.53;6.43;;;;;;;1.43;100.00;96821.38;6244767;23;20205;-79
2023/01/17 04:21:07;;;;;;;6.90;6.20;;;;;;;1.42;100.00;96814.50;6244637;23;20211;-79
2023/01/17 04:23:33;;;;;;;7.27;6.50;;;;;;;1.35;100.00;96815.66;6245031;23;20531;-79
2023/01/17 04:26:02;;;;;;;7.57;6.77;;;;;;;1.49;100.00;96824.94;6244804;23;20205;-79
2023/01/17 04:28:29;;;;;;;7.37;6.67;;;;;;;1.42;100.00;96813.69;6218014;23;20201;-78
2023/01/17 04:30:59;;;;;;;7.20;6.50;;;;;;;1.33;100.00;96832.50;6244955;23;20215;-78
2023/01/17 04:33:25;;;;;;;7.27;6.40;;;;;;;1.34;100.00;96822.75;6244685;23;20205;-79
2023/01/17 04:35:53;;;;;;;7.83;7.03;;;;;;;1.24;100.00;96825.97;6247558;23;20689;-79
2023/01/17 04:38:20;;;;;;;7.90;7.10;;;;;;;1.28;100.00;96823.66;6244498;23;20205;-78
2023/01/17 04:40:47;;;;;;;8.97;7.70;;;;;;;1.29;100.00;96820.00;6220159;23;20208;-80
2023/01/17 04:43:15;;;;;;;9.20;7.97;;;;;;;1.29;100.00;96826.09;6246826;23;20201;-79
2023/01/17 04:45:42;;;;;;;7.67;6.97;;;;;;;1.30;100.00;96830.34;6246688;23;20201;-78
2023/01/17 04:48:11;;;;;;;7.73;6.93;;;;;;;1.22;100.00;96821.94;6219648;23;20288;-78
2023/01/17 04:50:38;;;;;;;8.00;7.20;;;;;;;1.18;100.00;96826.88;6246610;23;20629;-78
2023/01/17 04:53:05;;;;;;;8.80;7.10;;;;;;;1.12;100.00;96827.78;6220203;23;20643;-78
2023/01/17 04:55:31;;;;;;;7.40;6.70;;;;;;;1.12;100.00;96827.00;6246512;23;20208;-79
2023/01/17 04:57:58;;;;;;;7.77;6.93;;;;;;;1.16;100.00;96828.94;6246383;23;20241;-79
2023/01/17 05:00:24;;;;;;;7.60;6.63;;;;;;;1.12;100.00;96837.53;6245892;23;20205;-78
2023/01/17 05:02:51;;;;;;;7.50;6.80;;;;;;;1.11;100.00;96843.84;6246233;23;20288;-78
2023/01/17 05:05:18;;;;;;;8.03;7.00;;;;;;;1.08;100.00;96842.44;6246480;23;20208;-79
2023/01/17 05:07:52;;;;;;;8.47;7.40;;;;;;;1.06;100.00;96831.34;6246379;23;20215;-78
2023/01/17 05:10:18;;;;;;;8.30;7.40;;;;;;;1.02;100.00;96840.75;6227957;23;20224;-78
2023/01/17 05:12:52;;;;;;;7.70;6.70;;;;;;;1.13;100.00;96847.03;6223511;23;20219;-79
2023/01/17 05:15:19;;;;;;;10.30;9.30;;;;;;;1.07;100.00;96830.31;6219926;23;20205;-79
2023/01/17 05:17:46;;;;;;;11.17;10.07;;;;;;;1.05;100.00;96837.63;6244811;23;20263;-79
2023/01/17 05:20:12;;;;;;;10.03;9.03;;;;;;;1.05;100.00;96850.81;6245729;23;20216;-78
2023/01/17 05:22:39;;;;;;;12.67;11.37;;;;;;;1.02;100.00;96845.19;6246258;23;20578;-78
2023/01/17 05:25:06;;;;;;;12.77;11.57;;;;;;;1.01;100.00;96854.94;6246232;23;20212;-79
2023/01/17 05:27:33;;;;;;;12.13;10.93;;;;;;;0.99;100.00;96858.81;6246346;23;20674;-78
2023/01/17 05:29:59;;;;;;;12.43;11.23;;;;;;;0.99;100.00;96853.53;6246159;23;20207;-79
2023/01/17 05:32:26;;;;;;;10.87;9.77;;;;;;;0.98;100.00;96850.09;6245814;23;20732;-78
2023/01/17 05:34:52;;;;;;;10.10;9.10;;;;;;;0.97;100.00;96866.97;6246141;23;20204;-79
2023/01/17 05:37:19;;;;;;;9.67;8.40;;;;;;;0.96;100.00;96860.09;6246272;23;20254;-79
2023/01/17 05:39:46;;;;;;;9.57;8.57;;;;;;;1.00;100.00;96863.88;6244468;23;20551;-79
2023/01/17 05:42:13;;;;;;;9.80;8.80;;;;;;;0.96;100.00;96859.28;6245350;23;20550;-78
2023/01/17 05:44:39;;;;;;;9.57;8.57;;;;;;;0.95;100.00;96863.75;6246335;23;20238;-78
2023/01/17 05:47:06;;;;;;;10.20;9.17;;;;;;;0.93;100.00;96876.38;6245834;23;20208;-79
2023/01/17 05:49:33;;;;;;;9.93;8.93;;;;;;;0.96;100.00;96875.09;6246087;23;20202;-79
2023/01/17 05:51:59;;;;;;;9.73;8.73;;;;;;;0.87;100.00;96874.63;6245073;23;20212;-78
2023/01/17 05:54:26;;;;;;;10.90;9.67;;;;;;;1.04;100.00;96888.75;6245600;23;20212;-78
2023/01/17 05:56:52;;;;;;;9.67;8.67;;;;;;;1.04;100.00;96890.59;6246049;23;20209;-78
2023/01/17 05:59:19;;;;;;;11.07;9.47;;;;;;;0.99;100.00;96893.09;6245777;23;20209;-79
2023/01/17 06:02:01;;;;;;;10.70;9.53;;;;;;;0.93;100.00;96897.47;6241659;23;20205;-78
2023/01/17 06:04:28;;;;;;;10.63;9.53;;;;;;;0.96;100.00;96904.91;6219444;23;20665;-78
2023/01/17 06:06:54;;;;;;;11.97;10.00;;;;;;;0.96;100.00;96907.53;6246470;23;20499;-79
2023/01/17 06:09:21;;;;;;;11.27;9.80;;;;;;;0.85;100.00;96914.38;6214092;23;20206;-79
2023/01/17 06:11:48;;;;;;;11.33;9.93;;;;;;;0.91;100.00;96919.78;6237228;23;20201;-78
2023/01/17 06:14:14;;;;;;;11.73;10.57;;;;;;;0.91;100.00;96917.94;6245209;23;20515;-78
2023/01/17 06:16:41;;;;;;;11.40;10.20;;;;;;;0.98;100.00;96923.16;6246358;23;20504;-79
2023/01/17 06:19:08;;;;;;;12.17;10.47;;;;;;;0.94;100.00;96932.50;6245916;23;20691;-78
2023/01/17 06:21:34;;;;;;;11.87;10.63;;;;;;;0.94;100.00;96935.94;6245874;23;20283;-79
2023/01/17 06:24:01;;;;;;;11.80;10.47;;;;;;;0.87;100.00;96941.31;6245282;23;20209;-77
2023/01/17 06:26:29;;;;;;;12.53;11.03;;;;;;;0.95;100.00;96949.94;6245914;23;20212;-78
2023/01/17 06:28:56;;;;;;;12.33;10.97;;;;;;;0.93;100.00;96954.66;6246113;23;20533;-78
2023/01/17 06:31:22;;;;;;;11.87;10.57;;;;;;;0.95;100.00;96944.66;6245624;23;20279;-78
2023/01/17 06:33:49;;;;;;;11.73;10.53;;;;;;;0.95;100.00;96952.56;6246267;23;20205;-78
2023/01/17 06:36:16;;;;;;;11.80;10.60;;;;;;;0.95;100.00;96950.75;6245920;23;20216;-79
2023/01/17 06:38:42;;;;;;;12.47;11.17;;;;;;;0.92;100.00;96947.75;6245845;23;20591;-78
2023/01/17 06:41:09;;;;;;;13.50;11.90;;;;;;;0.96;100.00;96951.56;6245817;23;20211;-79
2023/01/17 06:43:35;;;;;;;13.27;11.33;;;;;;;1.00;100.00;96961.44;6219222;23;20208;-79
2023/01/17 06:46:02;;;;;;;12.57;10.97;;;;;;;0.96;100.00;96957.63;6245448;23;20204;-78
2023/01/17 06:48:29;;;;;;;15.47;12.70;;;;;;;1.00;100.00;96960.63;6245387;23;20209;-79
2023/01/17 06:50:56;;;;;;;24.60;16.93;;;;;;;1.02;100.00;96964.66;6245754;23;20200;-78
2023/01/17 06:53:23;;;;;;;22.70;16.20;;;;;;;1.02;100.00;96969.13;6193707;23;20205;-79
2023/01/17 06:55:51;;;;;;;18.23;13.67;;;;;;;1.10;100.00;96981.97;6245815;23;20204;-78
2023/01/17 06:58:18;;;;;;;14.67;13.07;;;;;;;1.14;100.00;96981.31;6244760;23;20201;-78
2023/01/17 07:00:44;;;;;;;14.10;12.47;;;;;;;1.16;100.00;96984.53;6245624;23;20207;-79
2023/01/17 07:03:17;;;;;;;12.73;11.43;;;;;;;1.14;100.00;96991.88;6246095;23;20211;-78
2023/01/17 07:05:44;;;;;;;14.50;11.97;;;;;;;1.21;100.00;96994.41;6219071;23;20204;-78
2023/01/17 07:08:10;;;;;;;13.90;12.40;;;;;;;1.14;100.00;96996.31;6245344;23;20215;-78
2023/01/17 07:10:37;;;;;;;13.23;11.10;;;;;;;1.13;100.00;97000.78;6243549;23;20215;-79
2023/01/17 07:13:04;;;;;;;12.40;11.03;;;;;;;1.16;100.00;97003.00;6244036;23;20202;-79
2023/01/17 07:15:30;;;;;;;13.97;11.10;;;;;;;1.30;100.00;97003.63;6244604;23;20207;-79
2023/01/17 07:18:00;;;;;;;14.60;13.20;;;;;;;1.36;100.00;97007.19;6245335;23;20232;-79
2023/01/17 07:20:26;;;;;;;14.07;12.67;;;;;;;1.40;100.00;97009.13;6243942;23;20207;-80
2023/01/17 07:22:54;;;;;;;13.27;11.97;;;;;;;1.32;100.00;97009.47;6245041;23;20219;-79
2023/01/17 07:25:20;;;;;;;12.53;11.33;;;;;;;1.42;100.00;97020.28;6245129;23;20235;-79
2023/01/17 07:27:47;;;;;;;12.30;11.00;;;;;;;1.31;100.00;97024.47;6243588;23;20540;-79
2023/01/17 07:30:14;;;;;;;14.20;11.20;;;;;;;1.38;100.00;97028.88;6245170;23;20204;-79
2023/01/17 07:32:40;;;;;;;12.10;10.80;;;;;;;1.43;100.00;97042.19;6245449;23;20201;-79
2023/01/17 07:35:07;;;;;;;13.13;11.00;;;;;;;1.50;100.00;97032.34;6244937;23;20238;-78
2023/01/17 07:37:34;;;;;;;12.13;10.93;;;;;;;1.64;100.00;97039.84;6219188;23;20181;-79
2023/01/17 07:40:01;;;;;;;12.10;11.00;;;;;;;1.70;100.00;97043.44;6244998;23;20200;-79
2023/01/17 07:42:28;;;;;;;12.27;10.57;;;;;;;1.75;100.00;97038.28;6244702;23;20203;-78
2023/01/17 07:44:55;;;;;;;12.77;10.80;;;;;;;1.73;100.00;97045.59;6232152;23;20267;-78
2023/01/17 07:47:23;;;;;;;11.87;10.67;;;;;;;1.77;100.00;97038.88;6245053;23;20209;-79
2023/01/17 07:49:50;;;;;;;11.43;10.23;;;;;;;1.81;100.00;97042.66;6245306;23;20243;-79
2023/01/17 07:52:16;;;;;;;11.43;10.13;;;;;;;1.89;100.00;97038.88;6244648;23;20212;-78
2023/01/17 07:54:43;;;;;;;11.00;9.90;;;;;;;1.94;100.00;97042.44;6245069;23;20220;-79
2023/01/17 07:57:11;;;;;;;11.97;10.10;;;;;;;2.00;100.00;97046.84;6244649;23;20200;-79
2023/01/17 07:59:37;;;;;;;12.37;10.23;;;;;;;2.07;100.00;97049.34;6218734;23;20662;-79
2023/01/17 08:02:04;;;;;;;11.93;10.63;;;;;;;2.18;100.00;97056.50;6216409;23;20223;-78
2023/01/17 08:04:34;;;;;;;11.20;10.00;;;;;;;2.25;100.00;97059.81;6242320;23;20228;-79
2023/01/17 08:07:00;;;;;;;13.30;9.87;;;;;;;2.28;100.00;97058.56;6219280;23;20260;-78
2023/01/17 08:09:27;;;;;;;10.97;9.87;;;;;;;2.27;100.00;97056.94;6245963;23;20236;-79
2023/01/17 08:11:54;;;;;;;10.93;9.70;;;;;;;2.30;100.00;97061.75;6245809;23;20248;-79
2023/01/17 08:14:20;;;;;;;10.37;8.97;;;;;;;2.36;100.00;97071.44;6246462;23;20276;-78
2023/01/17 08:16:47;;;;;;;12.07;10.47;;;;;;;2.39;100.00;97068.31;6247732;23;20185;-79
2023/01/17 08:19:14;;;;;;;11.80;9.73;;;;;;;2.34;100.00;97066.38;6247349;23;20230;-79
2023/01/17 08:21:40;;;;;;;10.60;9.53;;;;;;;2.33;100.00;97067.41;6246377;23;20205;-78
2023/01/17 08:24:13;;;;;;;12.83;9.97;;;;;;;2.28;100.00;97067.31;6244450;23;20598;-78
2023/01/17 08:26:40;;;;;;;11.67;9.87;;;;;;;2.38;100.00;97074.66;6246290;23;20189;-78
2023/01/17 08:29:07;;;;;;;12.00;9.80;;;;;;;2.50;100.00;97057.75;6246469;23;20266;-79
2023/01/17 08:31:34;;;;;;;11.33;10.03;;;;;;;2.72;100.00;97057.16;6245022;23;20565;-79
2023/01/17 08:34:01;;;;;;;11.90;10.53;;;;;;;3.09;100.00;97047.88;6246835;23;20208;-79
2023/01/17 08:36:29;;;;;;;13.87;12.47;;;;;;;3.25;100.00;97044.50;6204439;23;20669;-78
2023/01/17 08:38:56;;;;;;;14.90;12.30;;;;;;;3.42;100.00;97031.31;6246769;23;20735;-78
2023/01/17 08:41:23;;;;;;;19.23;13.63;;;;;;;3.57;100.00;97028.16;6246632;23;20569;-78
2023/01/17 08:43:50;;;;;;;10.50;8.73;;;;;;;3.87;100.00;97034.75;6246140;23;20527;-78
2023/01/17 08:46:18;;;;;;;10.23;8.50;;;;;;;4.13;100.00;97025.38;6248729;23;20212;-80
2023/01/17 08:48:45;;;;;;;10.27;9.07;;;;;;;4.46;100.00;97029.84;6224865;23;20201;-79
2023/01/17 08:51:12;;;;;;;6.70;6.10;;;;;;;4.65;100.00;97033.03;6247652;23;20208;-80
2023/01/17 08:53:39;;;;;;;7.47;5.67;;;;;;;4.78;100.00;97044.09;6221049;23;20204;-79
2023/01/17 08:56:06;;;;;;;6.03;5.47;;;;;;;4.91;100.00;97048.22;6246691;23;20209;-78
2023/01/17 08:58:34;;;;;;;4.80;4.23;;;;;;;5.02;100.00;97049.97;6245206;23;20207;-79
2023/01/17 09:01:02;;;;;;;4.43;3.90;;;;;;;5.13;100.00;97061.53;6244321;23;20255;-79
2023/01/17 09:03:30;;;;;;;4.77;4.00;;;;;;;5.09;100.00;97063.84;6219599;23;20208;-78
2023/01/17 09:06:01;;;;;;;5.00;4.50;;;;;;;5.10;100.00;97072.63;6246258;23;20224;-78
2023/01/17 09:08:28;;;;;;;6.70;5.80;;;;;;;5.02;100.00;97073.84;6219921;23;20205;-78
2023/01/17 09:10:54;;;;;;;8.63;7.17;;;;;;;5.12;100.00;97081.97;6246525;23;20207;-80
2023/01/17 09:13:22;;;;;;;5.73;5.13;;;;;;;5.15;100.00;97088.59;6247466;23;20216;-79
2023/01/17 09:15:49;;;;;;;5.83;4.90;;;;;;;5.15;100.00;97089.41;6246150;23;20213;-79
2023/01/17 09:18:15;;;;;;;6.40;5.20;;;;;;;5.03;100.00;97099.34;6246823;23;20231;-78
2023/01/17 09:20:42;;;;;;;6.90;5.63;;;;;;;5.03;100.00;97095.91;6246137;23;20765;-79
2023/01/17 09:23:08;;;;;;;5.87;4.83;;;;;;;5.04;100.00;97092.97;6245092;23;20208;-79
2023/01/17 09:25:35;;;;;;;5.67;5.07;;;;;;;5.00;100.00;97099.03;6246414;23;20197;-79
2023/01/17 09:28:02;;;;;;;5.97;5.40;;;;;;;5.00;100.00;97102.47;6219157;23;20546;-78
2023/01/17 09:30:28;;;;;;;4.13;3.73;;;;;;;5.04;100.00;97108.13;6247205;23;20209;-78
2023/01/17 09:32:55;;;;;;;7.00;6.10;;;;;;;5.07;100.00;97100.47;6253302;23;20209;-81
2023/01/17 09:41:34;;;;;;;8.33;7.40;;;;;;;5.44;100.00;97094.53;6213008;23;20664;-81
2023/01/17 09:44:20;;;;;;;8.23;7.43;;;;;;;5.67;100.00;97083.66;6192775;23;20697;-80
2023/01/17 09:46:47;;;;;;;7.67;6.50;;;;;;;5.77;100.00;97078.44;6218404;23;20192;-80
2023/01/17 09:49:23;;;;;;;4.33;3.93;;;;;;;5.87;100.00;97089.22;6191773;23;20730;-80
2023/01/17 09:51:52;;;;;;;5.13;4.43;;;;;;;5.88;100.00;97095.31;6219687;23;20205;-80
2023/01/17 09:54:23;;;;;;;10.17;7.63;;;;;;;6.04;100.00;97097.06;6221459;23;20197;-80
2023/01/17 09:57:01;;;;;;;4.80;4.30;;;;;;;6.10;100.00;97080.91;6194078;23;20543;-80
2023/01/17 09:59:53;;;;;;;11.90;10.60;;;;;;;6.14;100.00;97081.22;6198684;23;20219;-81
2023/01/17 10:02:59;;;;;;;10.30;9.20;;;;;;;6.26;100.00;97076.50;6205287;23;20228;-80
2023/01/17 10:05:49;;;;;;;15.03;11.87;;;;;;;6.34;100.00;97068.09;6194643;23;20212;-81
2023/01/17 10:08:24;;;;;;;11.37;10.23;;;;;;;6.51;100.00;97052.78;6169378;23;20209;-80
2023/01/17 10:10:54;;;;;;;8.83;7.90;;;;;;;6.81;100.00;97054.81;6220759;23;20639;-81
2023/01/17 10:13:52;;;;;;;19.00;13.97;;;;;;;6.95;100.00;97041.88;6219948;23;20288;-81
2023/01/17 10:16:26;;;;;;;4.27;3.37;;;;;;;7.08;100.00;97044.06;6222053;23;20236;-81
2023/01/17 10:19:07;;;;;;;3.20;2.10;;;;;;;7.15;100.00;97044.59;6195799;23;20268;-81
2023/01/17 10:21:50;;;;;;;2.67;2.00;;;;;;;7.05;100.00;97036.56;6220889;23;20594;-81
2023/01/17 10:24:21;;;;;;;2.23;1.40;;;;;;;6.91;100.00;97046.88;6221023;23;20260;-80
2023/01/17 10:26:50;;;;;;;3.47;1.90;;;;;;;6.83;100.00;97046.59;6195104;23;20209;-80
2023/01/17 10:29:18;;;;;;;3.90;2.87;;;;;;;6.70;100.00;97031.88;6222091;23;20209;-81
2023/01/17 10:32:13;;;;;;;4.47;2.13;;;;;;;6.64;100.00;97020.41;6221365;23;20689;-81
2023/01/17 10:34:44;;;;;;;2.70;1.80;;;;;;;6.59;100.00;97011.59;6213760;23;20218;-81
2023/01/17 10:37:17;;;;;;;4.67;2.30;;;;;;;6.66;100.00;97008.72;6196758;23;20232;-81
2023/01/17 10:39:46;;;;;;;3.67;2.40;;;;;;;6.74;100.00;96992.25;6193153;23;20232;-80
2023/01/17 10:42:22;;;;;;;2.33;2.07;;;;;;;6.79;100.00;96990.41;6177096;23;20213;-81
2023/01/17 10:45:05;;;;;;;2.47;2.10;;;;;;;6.76;100.00;96988.28;6195726;23;20274;-81
2023/01/17 10:47:35;;;;;;;1.97;1.40;;;;;;;6.92;100.00;96978.50;6218965;23;20589;-81
2023/01/17 10:50:04;;;;;;;2.40;1.10;;;;;;;7.09;100.00;96971.13;6190470;23;20209;-80
2023/01/17 10:52:44;;;;;;;4.20;1.10;;;;;;;7.37;100.00;96961.88;6218715;23;20209;-81
2023/01/17 10:55:10;;;;;;;1.43;1.17;;;;;;;7.64;100.00;96961.63;6195715;23;20236;-81
2023/01/17 10:57:39;;;;;;;1.90;0.90;;;;;;;7.94;100.00;96956.31;6222384;23;20205;-81
2023/01/17 11:00:38;;;;;;;2.80;0.80;;;;;;;8.10;100.00;96957.91;6193684;23;20257;-80
2023/01/17 11:03:05;;;;;;;0.70;0.67;;;;;;;8.38;100.00;96943.22;6130716;23;20229;-80
2023/01/17 11:05:32;;;;;;;0.70;0.70;;;;;;;8.71;100.00;96941.81;6192141;23;20206;-81
2023/01/17 11:08:05;;;;;;;0.90;0.77;;;;;;;9.17;100.00;96937.06;6221912;23;20207;-81
2023/01/17 11:10:34;;;;;;;1.40;0.60;;;;;;;9.31;100.00;96934.56;6168251;23;20212;-81
2023/01/17 11:13:03;;;;;;;0.93;0.60;;;;;;;9.07;100.00;96927.22;6221932;23;20287;-81
2023/01/17 11:15:32;;;;;;;0.87;0.70;;;;;;;9.08;100.00;96930.69;6221922;23;20658;-81
2023/01/17 11:18:05;;;;;;;1.37;0.50;;;;;;;9.00;100.00;96931.28;6192483;23;20601;-81
2023/01/17 11:20:35;;;;;;;0.70;0.70;;;;;;;8.69;100.00;96931.38;6195351;23;20265;-80
2023/01/17 11:23:07;;;;;;;0.60;0.60;;;;;;;8.82;100.00;96930.00;6195889;23;20295;-81
2023/01/17 11:25:34;;;;;;;1.57;0.67;;;;;;;8.89;100.00;96925.19;6221080;23;20643;-81
2023/01/17 11:28:22;;;;;;;0.97;0.60;;;;;;;8.91;100.00;96922.25;6221050;23;20593;-79
2023/01/17 11:30:57;;;;;;;1.77;0.70;;;;;;;8.81;100.00;96923.09;6222400;23;20209;-81
2023/01/17 11:33:46;;;;;;;0.60;0.60;;;;;;;8.76;100.00;96915.91;6220657;23;20208;-81
2023/01/17 11:36:18;;;;;;;0.93;0.60;;;;;;;8.84;100.00;96922.53;6219626;23;20209;-81
2023/01/17 11:39:05;;;;;;;1.33;1.10;;;;;;;8.83;100.00;96926.25;6193843;23;20264;-81
2023/01/17 11:41:39;;;;;;;1.53;1.00;;;;;;;8.75;100.00;96924.16;6194166;23;20201;-81
2023/01/17 11:44:32;;;;;;;1.67;0.80;;;;;;;8.84;100.00;96917.19;6194773;23;20200;-81
2023/01/17 11:47:11;;;;;;;2.23;1.43;;;;;;;8.78;100.00;96908.41;6194988;23;20209;-81
2023/01/17 11:49:39;;;;;;;1.57;1.47;;;;;;;8.81;100.00;96915.88;6220871;23;20204;-81
2023/01/17 11:52:15;;;;;;;2.00;1.60;;;;;;;8.81;100.00;96921.22;6220761;23;20202;-80
2023/01/17 11:54:44;;;;;;;1.40;1.30;;;;;;;8.74;100.00;96920.69;6195623;23;20216;-80
2023/01/17 11:57:32;;;;;;;1.43;1.30;;;;;;;8.69;100.00;96927.91;6194749;23;20204;-80
2023/01/17 12:00:36;;;;;;;1.90;1.10;;;;;;;8.54;100.00;96928.75;6219350;23;20258;-81
2023/01/17 12:03:22;;;;;;;2.53;1.50;;;;;;;8.47;100.00;96914.13;6194145;23;20205;-81
2023/01/17 12:05:56;;;;;;;1.50;1.30;;;;;;;8.57;100.00;96906.09;6221648;23;20220;-81
2023/01/17 12:08:57;;;;;;;1.97;1.70;;;;;;;8.58;100.00;96900.50;6220288;23;20228;-81
2023/01/17 12:11:36;;;;;;;1.50;1.40;;;;;;;8.54;100.00;96904.75;6221128;23;20213;-81
2023/01/17 12:14:15;;;;;;;2.83;1.63;;;;;;;8.63;100.00;96897.78;6194531;23;20211;-80
2023/01/17 12:16:45;;;;;;;2.30;2.10;;;;;;;8.70;100.00;96898.28;6194944;23;20235;-81
2023/01/17 12:19:50;;;;;;;2.43;2.23;;;;;;;8.79;100.00;96893.97;6221548;23;20228;-81
2023/01/17 12:22:26;;;;;;;3.93;2.30;;;;;;;8.91;100.00;96892.88;6221338;23;20288;-81
2023/01/17 12:25:18;;;;;;;2.53;2.03;;;;;;;8.95;100.00;96886.72;6195215;23;20264;-81
2023/01/17 12:28:10;;;;;;;2.67;2.43;;;;;;;9.02;100.00;96875.69;6221469;23;20217;-81
2023/01/17 12:30:46;;;;;;;4.00;2.90;;;;;;;9.08;100.00;96869.25;6194259;23;20262;-80
2023/01/17 12:33:32;;;;;;;3.83;3.53;;;;;;;9.17;100.00;96867.59;6220884;23;20205;-81
2023/01/17 12:36:22;;;;;;;7.93;5.43;;;;;;;9.09;100.00;96873.53;6194583;23;20658;-81
2023/01/17 12:38:48;;;;;;;5.80;5.27;;;;;;;9.10;100.00;96848.41;6220526;23;20209;-81
2023/01/17 12:41:47;;;;;;;5.30;4.80;;;;;;;9.08;100.00;96846.03;6220421;23;20239;-81
2023/01/17 12:44:15;;;;;;;7.73;6.50;;;;;;;8.98;100.00;96840.75;6194321;23;20202;-80
2023/01/17 12:46:49;;;;;;;5.87;5.10;;;;;;;8.97;100.00;96839.16;6205460;23;20206;-81
2023/01/17 12:49:42;;;;;;;4.47;3.93;;;;;;;8.87;100.00;96838.41;6194917;23;20212;-81
2023/01/17 12:52:13;;;;;;;2.63;2.43;;;;;;;8.86;100.00;96834.97;6169352;23;20240;-81
2023/01/17 12:54:43;;;;;;;4.17;3.33;;;;;;;8.87;100.00;96838.41;6194811;23;20645;-81
2023/01/17 12:57:30;;;;;;;6.70;5.27;;;;;;;8.92;100.00;96849.84;6222186;23;20210;-81
2023/01/17 13:00:04;;;;;;;19.23;15.80;;;;;;;8.76;100.00;96843.00;6196041;23;20677;-81
2023/01/17 13:02:42;;;;;;;13.33;11.93;;;;;;;8.62;100.00;96845.50;6196163;23;20287;-81
2023/01/17 13:05:11;;;;;;;7.77;5.93;;;;;;;8.39;100.00;96852.25;6221036;23;20236;-81
2023/01/17 13:07:45;;;;;;;7.30;6.60;;;;;;;8.28;100.00;96842.66;6196505;23;20225;-81
2023/01/17 13:10:18;;;;;;;9.20;7.80;;;;;;;8.26;100.00;96828.78;6170576;23;20236;-81
2023/01/17 13:12:45;;;;;;;5.60;4.67;;;;;;;8.16;100.00;96833.38;6196260;23;20223;-80